createdAt,value
2022-09-19T00:02:04.040Z,17.41
2022-09-19T00:04:35.480Z,17.45
2022-09-19T00:07:05.083Z,17.45
2022-09-19T00:09:38.620Z,17.47
2022-09-19T00:12:08.239Z,17.48
2022-09-19T00:14:38.224Z,17.45
2022-09-19T00:17:10.078Z,17.45
2022-09-19T00:19:40.852Z,17.41
2022-09-19T00:22:11.293Z,17.40
2022-09-19T00:24:51.989Z,17.35
2022-09-19T00:27:27.541Z,17.26
2022-09-19T00:29:57.877Z,17.17
2022-09-19T00:32:27.195Z,17.08
2022-09-19T00:34:56.677Z,17.04
2022-09-19T00:37:26.747Z,17.03
2022-09-19T00:39:56.488Z,17.02
2022-09-19T00:42:29.016Z,16.99
2022-09-19T00:45:19.254Z,16.94
2022-09-19T00:47:55.873Z,16.91
2022-09-19T00:50:33.981Z,16.91
2022-09-19T00:53:18.394Z,16.87
2022-09-19T00:55:51.034Z,16.83
2022-09-19T00:58:37.058Z,16.82
2022-09-19T01:01:06.755Z,16.81
2022-09-19T01:03:36.930Z,16.75
2022-09-19T01:06:36.639Z,16.67
2022-09-19T01:09:37.909Z,16.60
2022-09-19T01:12:36.454Z,16.53
2022-09-19T01:15:40.867Z,16.45
2022-09-19T01:18:12.586Z,16.35
2022-09-19T01:20:56.692Z,16.29
2022-09-19T01:23:59.402Z,16.22
2022-09-19T01:27:20.219Z,16.10
2022-09-19T01:30:05.945Z,15.95
2022-09-19T01:33:21.139Z,15.84
2022-09-19T01:35:56.305Z,15.72
2022-09-19T01:38:31.297Z,15.63
2022-09-19T01:41:01.607Z,15.51
2022-09-19T01:43:30.886Z,15.38
2022-09-19T01:46:14.699Z,15.26
2022-09-19T01:49:09.379Z,15.15
2022-09-19T01:51:51.888Z,15.04
2022-09-19T01:54:49.911Z,14.94
2022-09-19T01:57:49.912Z,14.81
2022-09-19T02:00:24.858Z,14.65
2022-09-19T02:02:58.280Z,14.51
2022-09-19T02:05:45.677Z,14.40
2022-09-19T02:08:33.601Z,14.28
2022-09-19T02:11:17.645Z,14.17
2022-09-19T02:13:59.390Z,14.04
2022-09-19T02:16:38.799Z,13.94
2022-09-19T02:19:19.001Z,13.86
2022-09-19T02:22:01.566Z,13.75
2022-09-19T02:24:40.506Z,13.65
2022-09-19T02:27:29.442Z,13.57
2022-09-19T02:30:08.499Z,13.51
2022-09-19T02:32:49.324Z,13.43
2022-09-19T02:35:58.573Z,13.37
2022-09-19T02:38:48.417Z,13.29
2022-09-19T02:41:47.272Z,13.20
2022-09-19T02:44:27.095Z,13.13
2022-09-19T02:47:20.726Z,13.04
2022-09-19T02:50:05.342Z,12.97
2022-09-19T02:52:36.447Z,12.89
2022-09-19T02:55:17.761Z,12.83
2022-09-19T02:57:53.100Z,12.76
2022-09-19T03:00:26.408Z,12.69
2022-09-19T03:03:45.400Z,12.65
2022-09-19T03:06:19.623Z,12.59
2022-09-19T03:08:52.982Z,12.56
2022-09-19T03:11:28.620Z,12.48
2022-09-19T03:14:01.550Z,12.44
2022-09-19T03:16:44.467Z,12.41
2022-09-19T03:19:13.834Z,12.37
2022-09-19T03:21:43.959Z,12.31
2022-09-19T03:24:13.556Z,12.22
2022-09-19T03:26:42.826Z,12.11
2022-09-19T03:29:15.346Z,12.01
2022-09-19T03:31:47.720Z,11.95
2022-09-19T03:34:17.500Z,11.93
2022-09-19T03:36:46.792Z,11.93
2022-09-19T03:39:17.304Z,11.90
2022-09-19T03:41:46.469Z,11.86
2022-09-19T03:44:16.516Z,11.80
2022-09-19T03:46:48.423Z,11.73
2022-09-19T03:49:18.577Z,11.67
2022-09-19T03:51:48.474Z,11.59
2022-09-19T03:54:17.714Z,11.53
2022-09-19T03:56:46.911Z,11.48
2022-09-19T03:59:16.432Z,11.46
2022-09-19T04:01:45.561Z,11.43
2022-09-19T04:04:15.931Z,11.41
2022-09-19T04:06:47.952Z,11.39
2022-09-19T04:09:17.276Z,11.36
2022-09-19T04:11:47.149Z,11.34
2022-09-19T04:14:18.018Z,11.32
2022-09-19T04:16:50.648Z,11.27
2022-09-19T04:19:32.319Z,11.24
2022-09-19T04:22:03.684Z,11.21
2022-09-19T04:24:32.901Z,11.18
2022-09-19T04:27:01.957Z,11.16
2022-09-19T04:29:31.117Z,11.13
2022-09-19T04:32:04.400Z,11.10
2022-09-19T04:34:34.065Z,11.08
2022-09-19T04:37:05.001Z,11.09
2022-09-19T04:39:34.105Z,11.08
2022-09-19T04:42:04.220Z,11.08
2022-09-19T04:44:33.713Z,11.08
2022-09-19T04:47:03.453Z,11.08
2022-09-19T04:49:36.785Z,11.07
2022-09-19T04:52:07.342Z,11.07
2022-09-19T04:54:38.915Z,11.07
2022-09-19T04:57:10.038Z,11.04
2022-09-19T04:59:39.634Z,11.03
2022-09-19T05:02:10.380Z,11.01
2022-09-19T05:04:42.035Z,10.98
2022-09-19T05:07:15.397Z,10.93
2022-09-19T05:09:44.731Z,10.90
2022-09-19T05:12:14.467Z,10.89
2022-09-19T05:14:43.841Z,10.85
2022-09-19T05:17:13.244Z,10.82
2022-09-19T05:19:42.422Z,10.81
2022-09-19T05:22:12.507Z,10.79
2022-09-19T05:24:42.353Z,10.77
2022-09-19T05:27:13.639Z,10.76
2022-09-19T05:29:43.518Z,10.73
2022-09-19T05:32:12.632Z,10.70
2022-09-19T05:34:41.794Z,10.66
2022-09-19T05:37:11.003Z,10.62
2022-09-19T05:39:40.203Z,10.57
2022-09-19T05:42:09.789Z,10.54
2022-09-19T05:44:39.083Z,10.51
2022-09-19T05:47:08.803Z,10.47
2022-09-19T05:49:38.305Z,10.43
2022-09-19T05:52:28.626Z,10.39
2022-09-19T05:54:57.936Z,10.35
2022-09-19T05:57:27.964Z,10.32
2022-09-19T05:59:58.745Z,10.29
2022-09-19T06:02:29.196Z,10.27
2022-09-19T06:04:58.374Z,10.25
2022-09-19T06:07:27.860Z,10.25
2022-09-19T06:09:57.968Z,10.26
2022-09-19T06:12:27.094Z,10.24
2022-09-19T06:14:56.382Z,10.24
2022-09-19T06:17:28.826Z,10.24
2022-09-19T06:19:58.278Z,10.22
2022-09-19T06:22:28.637Z,10.21
2022-09-19T06:24:58.007Z,10.19
2022-09-19T06:27:27.179Z,10.18
2022-09-19T06:29:56.869Z,10.17
2022-09-19T06:32:26.028Z,10.17
2022-09-19T06:34:58.451Z,10.16
2022-09-19T06:37:28.871Z,10.14
2022-09-19T06:39:58.944Z,10.15
2022-09-19T06:42:29.424Z,10.13
2022-09-19T06:44:58.809Z,10.10
2022-09-19T06:47:28.740Z,10.10
2022-09-19T06:49:57.921Z,10.09
2022-09-19T06:52:27.290Z,10.08
2022-09-19T06:54:57.221Z,10.06
2022-09-19T06:57:27.251Z,10.04
2022-09-19T06:59:56.524Z,10.02
2022-09-19T07:02:25.722Z,10.02
2022-09-19T07:04:55.070Z,10.01
2022-09-19T07:07:24.330Z,10.00
2022-09-19T07:09:53.730Z,9.99
2022-09-19T07:12:23.490Z,9.97
2022-09-19T07:14:55.760Z,9.95
2022-09-19T07:17:26.886Z,9.92
2022-09-19T07:19:56.007Z,9.91
2022-09-19T07:22:25.409Z,9.88
2022-09-19T07:24:57.049Z,9.85
2022-09-19T07:27:26.206Z,9.81
2022-09-19T07:29:55.706Z,9.77
2022-09-19T07:32:24.883Z,9.73
2022-09-19T07:34:54.031Z,9.72
2022-09-19T07:37:26.769Z,9.74
2022-09-19T07:40:11.246Z,9.77
2022-09-19T07:42:41.756Z,9.77
2022-09-19T07:45:11.646Z,9.76
2022-09-19T07:47:51.025Z,9.75
2022-09-19T07:50:21.903Z,9.73
2022-09-19T07:53:03.957Z,9.70
2022-09-19T07:55:33.939Z,9.66
2022-09-19T07:58:05.878Z,9.61
2022-09-19T08:00:39.563Z,9.56
2022-09-19T08:03:15.689Z,9.50
2022-09-19T08:05:56.063Z,9.45
2022-09-19T08:08:26.026Z,9.39
2022-09-19T08:11:02.422Z,9.35
2022-09-19T08:13:31.660Z,9.31
2022-09-19T08:16:06.815Z,9.26
2022-09-19T08:18:36.094Z,9.24
2022-09-19T08:21:05.486Z,9.20
2022-09-19T08:23:35.789Z,9.13
2022-09-19T08:26:08.029Z,9.10
2022-09-19T08:28:37.169Z,9.08
2022-09-19T08:31:06.386Z,9.05
2022-09-19T08:33:36.125Z,8.99
2022-09-19T08:36:06.426Z,8.95
2022-09-19T08:38:35.886Z,8.92
2022-09-19T08:41:17.033Z,8.90
2022-09-19T08:44:10.502Z,8.89
2022-09-19T08:47:09.464Z,8.88
2022-09-19T08:49:52.456Z,8.87
2022-09-19T08:52:55.740Z,8.86
2022-09-19T08:55:32.107Z,8.85
2022-09-19T08:58:18.986Z,8.84
2022-09-19T09:00:50.448Z,8.82
2022-09-19T09:03:30.081Z,8.79
2022-09-19T09:06:21.058Z,8.79
2022-09-19T09:09:23.448Z,8.80
2022-09-19T09:12:37.703Z,8.80
2022-09-19T09:15:51.095Z,8.76
2022-09-19T09:19:09.706Z,8.74
2022-09-19T09:22:08.978Z,8.70
2022-09-19T09:25:22.812Z,8.66
2022-09-19T09:28:16.479Z,8.64
2022-09-19T09:30:52.075Z,8.63
2022-09-19T09:33:47.264Z,8.61
2022-09-19T09:36:25.403Z,8.61
2022-09-19T09:39:16.043Z,8.63
2022-09-19T09:41:58.479Z,8.63
2022-09-19T09:45:30.395Z,8.65
2022-09-19T09:48:26.515Z,8.66
2022-09-19T09:51:48.928Z,8.65
2022-09-19T09:54:41.902Z,8.66
2022-09-19T09:57:45.827Z,8.66
2022-09-19T10:00:36.561Z,8.66
2022-09-19T10:03:24.412Z,8.65
2022-09-19T10:06:18.055Z,8.64
2022-09-19T10:09:08.973Z,8.64
2022-09-19T10:14:50.792Z,8.67
2022-09-19T10:17:22.092Z,8.68
2022-09-19T10:20:00.065Z,8.68
2022-09-19T10:22:29.506Z,8.69
2022-09-19T10:25:03.295Z,8.70
2022-09-19T10:27:35.675Z,8.68
2022-09-19T10:30:23.305Z,8.67
2022-09-19T10:32:52.924Z,8.67
2022-09-19T10:35:40.912Z,8.66
2022-09-19T10:38:18.370Z,8.65
2022-09-19T10:41:01.057Z,8.65
2022-09-19T10:44:10.441Z,8.64
2022-09-19T10:46:49.157Z,8.64
2022-09-19T10:49:28.145Z,8.63
2022-09-19T10:52:01.963Z,8.64
2022-09-19T10:54:44.761Z,8.64
2022-09-19T10:57:42.360Z,8.63
2022-09-19T11:00:31.055Z,8.62
2022-09-19T11:03:08.002Z,8.61
2022-09-19T11:05:38.856Z,8.61
2022-09-19T11:08:28.086Z,8.62
2022-09-19T11:10:58.417Z,8.63
2022-09-19T11:13:27.817Z,8.65
2022-09-19T11:16:30.794Z,8.66
2022-09-19T11:19:33.472Z,8.67
2022-09-19T11:22:24.920Z,8.68
2022-09-19T11:25:36.294Z,8.70
2022-09-19T11:28:32.051Z,8.72
2022-09-19T11:35:09.710Z,8.73
2022-09-19T11:37:54.011Z,8.75
2022-09-19T11:41:12.528Z,8.75
2022-09-19T11:43:58.625Z,8.74
2022-09-19T11:46:54.897Z,8.74
2022-09-19T11:49:49.416Z,8.73
2022-09-19T11:52:38.308Z,8.71
2022-09-19T11:55:22.296Z,8.71
2022-09-19T11:57:57.592Z,8.70
2022-09-19T12:00:29.025Z,8.70
2022-09-19T12:03:12.946Z,8.70
2022-09-19T12:06:20.687Z,8.71
2022-09-19T12:09:16.287Z,8.71
2022-09-19T12:12:15.324Z,8.66
2022-09-19T12:15:00.485Z,8.63
2022-09-19T12:17:45.381Z,8.64
2022-09-19T12:20:27.185Z,8.67
2022-09-19T12:24:02.689Z,8.71
2022-09-19T12:27:05.169Z,8.75
2022-09-19T12:30:13.205Z,8.77
2022-09-19T12:33:34.211Z,8.80
2022-09-19T12:36:43.885Z,8.84
2022-09-19T12:40:17.654Z,8.90
2022-09-19T12:43:09.470Z,8.98
2022-09-19T12:46:23.130Z,9.01
2022-09-19T12:49:14.412Z,9.00
2022-09-19T12:52:26.231Z,8.91
2022-09-19T12:55:17.961Z,8.82
2022-09-19T12:57:59.744Z,8.73
2022-09-19T13:00:28.843Z,8.63
2022-09-19T13:03:26.154Z,8.57
2022-09-19T13:06:12.612Z,8.54
2022-09-19T13:09:14.533Z,8.49
2022-09-19T13:12:01.470Z,8.40
2022-09-19T13:14:47.440Z,8.35
2022-09-19T13:17:36.191Z,8.31
2022-09-19T13:20:41.860Z,8.24
2022-09-19T13:23:37.812Z,8.17
2022-09-19T13:26:18.813Z,8.12
2022-09-19T13:28:58.855Z,8.04
2022-09-19T13:31:48.425Z,7.99
2022-09-19T13:34:35.894Z,7.94
2022-09-19T13:37:28.543Z,7.89
2022-09-19T13:40:17.031Z,7.83
2022-09-19T13:43:14.136Z,7.77
2022-09-19T13:46:14.873Z,7.74
2022-09-19T13:49:37.296Z,7.70
2022-09-19T13:52:34.453Z,7.69
2022-09-19T13:55:16.042Z,7.70
2022-09-19T13:57:49.929Z,7.75
2022-09-19T14:00:40.159Z,7.79
2022-09-19T14:03:34.484Z,7.84
2022-09-19T14:10:00.011Z,7.89
2022-09-19T14:12:40.169Z,7.97
2022-09-19T14:16:09.682Z,8.03
2022-09-19T14:18:57.141Z,8.12
2022-09-19T14:21:30.608Z,8.23
2022-09-19T14:24:11.200Z,8.32
2022-09-19T14:26:51.439Z,8.43
2022-09-19T14:29:57.761Z,8.50
2022-09-19T14:32:42.200Z,8.54
2022-09-19T14:35:35.448Z,8.57
2022-09-19T14:38:38.080Z,8.58
2022-09-19T14:42:11.230Z,8.56
2022-09-19T14:45:05.297Z,8.59
2022-09-19T14:47:42.934Z,8.61
2022-09-19T14:50:32.199Z,8.64
2022-09-19T14:53:15.664Z,8.65
2022-09-19T14:55:51.502Z,8.64
2022-09-19T14:58:34.577Z,8.63
2022-09-19T15:01:17.311Z,8.61
2022-09-19T15:04:03.784Z,8.62
2022-09-19T15:06:52.760Z,8.62
2022-09-19T15:09:29.449Z,8.65
2022-09-19T15:12:03.837Z,8.69
2022-09-19T15:14:33.028Z,8.71
2022-09-19T15:17:28.241Z,8.74
2022-09-19T15:20:19.368Z,8.76
2022-09-19T15:23:00.107Z,8.79
2022-09-19T15:25:42.574Z,8.86
2022-09-19T15:28:31.464Z,8.93
2022-09-19T15:31:03.372Z,9.01
2022-09-19T15:33:33.576Z,9.06
2022-09-19T15:36:03.352Z,9.14
2022-09-19T15:38:38.105Z,9.23
2022-09-19T15:41:10.212Z,9.32
2022-09-19T15:43:47.552Z,9.43
2022-09-19T15:46:39.543Z,9.55
2022-09-19T15:49:33.062Z,9.68
2022-09-19T15:52:11.257Z,9.77
2022-09-19T15:54:54.861Z,9.86
2022-09-19T15:57:34.962Z,9.95
2022-09-19T16:00:08.516Z,10.04
2022-09-19T16:02:45.229Z,10.07
2022-09-19T16:05:27.873Z,10.09
2022-09-19T16:08:43.877Z,10.13
2022-09-19T16:11:47.142Z,10.17
2022-09-19T16:14:31.219Z,10.15
2022-09-19T16:17:01.476Z,10.14
2022-09-19T16:19:33.501Z,10.12
2022-09-19T16:22:05.171Z,10.08
2022-09-19T16:25:01.123Z,10.07
2022-09-19T16:27:36.654Z,10.05
2022-09-19T16:30:10.935Z,10.08
2022-09-19T16:32:45.168Z,10.15
2022-09-19T16:35:21.776Z,10.20
2022-09-19T16:37:56.461Z,10.23
2022-09-19T16:40:28.821Z,10.27
2022-09-19T16:43:00.360Z,10.32
2022-09-19T16:45:42.692Z,10.37
2022-09-19T16:48:12.355Z,10.43
2022-09-19T16:50:44.184Z,10.56
2022-09-19T16:53:17.453Z,10.76
2022-09-19T16:55:52.574Z,10.86
2022-09-19T16:58:24.086Z,10.97
2022-09-19T17:00:55.336Z,11.00
2022-09-19T17:03:24.888Z,11.08
2022-09-19T17:05:56.764Z,11.08
2022-09-19T17:08:25.902Z,10.99
2022-09-19T17:10:55.260Z,10.83
2022-09-19T17:13:24.994Z,10.70
2022-09-19T17:16:08.884Z,10.57
2022-09-19T17:18:38.418Z,10.37
2022-09-19T17:21:10.009Z,10.25
2022-09-19T17:23:39.452Z,10.14
2022-09-19T17:26:08.912Z,10.05
2022-09-19T17:28:40.731Z,10.04
2022-09-19T17:31:14.097Z,10.07
2022-09-19T17:33:43.770Z,10.05
2022-09-19T17:36:13.915Z,10.03
2022-09-19T17:38:42.887Z,10.08
2022-09-19T17:41:15.577Z,10.14
2022-09-19T17:43:46.142Z,10.25
2022-09-19T17:46:20.350Z,10.34
2022-09-19T17:48:56.081Z,10.43
2022-09-19T17:51:25.814Z,10.51
2022-09-19T17:53:55.156Z,10.55
2022-09-19T17:56:27.996Z,10.60
2022-09-19T17:59:03.948Z,10.64
2022-09-19T18:01:52.846Z,10.72
2022-09-19T18:04:22.160Z,10.67
2022-09-19T18:06:51.378Z,10.53
2022-09-19T18:09:21.407Z,10.53
2022-09-19T18:11:51.188Z,10.57
2022-09-19T18:14:20.616Z,10.59
2022-09-19T18:16:49.995Z,10.55
2022-09-19T18:19:19.311Z,10.50
2022-09-19T18:21:50.059Z,10.54
2022-09-19T18:24:19.336Z,10.57
2022-09-19T18:26:48.906Z,10.61
2022-09-19T18:29:18.196Z,10.55
2022-09-19T18:31:47.564Z,10.44
2022-09-19T18:34:17.317Z,10.42
2022-09-19T18:36:46.616Z,10.48
2022-09-19T18:39:15.926Z,10.57
2022-09-19T18:41:45.153Z,10.59
2022-09-19T18:44:14.736Z,10.47
2022-09-19T18:46:43.854Z,10.25
2022-09-19T18:49:13.914Z,10.18
2022-09-19T18:51:43.939Z,10.14
2022-09-19T18:54:13.359Z,10.08
2022-09-19T18:56:42.589Z,10.05
2022-09-19T18:59:12.856Z,10.04
2022-09-19T19:01:42.769Z,10.03
2022-09-19T19:04:12.065Z,10.01
2022-09-19T19:06:41.616Z,10.04
2022-09-19T19:09:11.225Z,10.23
2022-09-19T19:11:41.167Z,10.34
2022-09-19T19:14:10.504Z,10.45
2022-09-19T19:16:39.975Z,10.41
2022-09-19T19:19:11.376Z,10.30
2022-09-19T19:21:42.801Z,10.21
2022-09-19T19:24:19.446Z,10.22
2022-09-19T19:26:48.758Z,10.06
2022-09-19T19:29:18.113Z,9.91
2022-09-19T19:31:47.731Z,9.84
2022-09-19T19:34:16.933Z,9.73
2022-09-19T19:36:46.367Z,9.58
2022-09-19T19:39:16.279Z,9.51
2022-09-19T19:41:45.699Z,9.47
2022-09-19T19:44:15.289Z,9.43
2022-09-19T19:46:44.548Z,9.42
2022-09-19T19:49:14.930Z,9.40
2022-09-19T19:51:45.002Z,9.43
2022-09-19T19:54:15.090Z,9.71
2022-09-19T19:56:47.957Z,9.98
2022-09-19T19:59:17.235Z,10.14
2022-09-19T20:01:49.432Z,10.23
2022-09-19T20:04:18.704Z,10.36
2022-09-19T20:06:48.073Z,10.37
2022-09-19T20:09:17.803Z,10.14
2022-09-19T20:11:48.917Z,10.08
2022-09-19T20:14:19.384Z,10.15
2022-09-19T20:16:51.689Z,10.12
2022-09-19T20:19:21.336Z,10.11
2022-09-19T20:21:53.364Z,10.08
2022-09-19T20:24:25.442Z,10.02
2022-09-19T20:26:57.704Z,9.95
2022-09-19T20:29:27.879Z,9.89
2022-09-19T20:31:57.718Z,9.79
2022-09-19T20:34:27.110Z,9.69
2022-09-19T20:36:56.191Z,9.48
2022-09-19T20:39:25.592Z,9.25
2022-09-19T20:41:55.043Z,9.16
2022-09-19T20:44:25.010Z,9.14
2022-09-19T20:46:54.205Z,9.10
2022-09-19T20:49:26.989Z,8.93
2022-09-19T20:51:56.439Z,8.80
2022-09-19T20:54:25.523Z,8.71
2022-09-19T20:56:55.897Z,8.63
2022-09-19T20:59:25.162Z,8.58
2022-09-19T21:01:55.623Z,8.54
2022-09-19T21:04:24.860Z,8.49
2022-09-19T21:06:54.506Z,8.43
2022-09-19T21:09:23.665Z,8.37
2022-09-19T21:11:53.467Z,8.35
2022-09-19T21:14:22.649Z,8.32
2022-09-19T21:16:51.654Z,8.29
2022-09-19T21:19:20.988Z,8.29
2022-09-19T21:21:50.263Z,8.28
2022-09-19T21:24:19.798Z,8.34
2022-09-19T21:26:49.442Z,8.33
2022-09-19T21:29:19.020Z,8.34
2022-09-19T21:31:48.500Z,8.44
2022-09-19T21:34:19.136Z,8.56
2022-09-19T21:36:48.533Z,8.71
2022-09-19T21:39:18.116Z,8.81
2022-09-19T21:41:47.335Z,8.86
2022-09-19T21:44:16.448Z,8.91
2022-09-19T21:46:45.636Z,8.91
2022-09-19T21:49:14.709Z,8.92
2022-09-19T21:51:44.298Z,8.95
2022-09-19T21:54:13.687Z,8.98
2022-09-19T21:56:43.023Z,8.99
2022-09-19T21:59:12.091Z,8.95
2022-09-19T22:01:41.304Z,8.92
2022-09-19T22:04:13.010Z,8.87
2022-09-19T22:06:42.300Z,8.82
2022-09-19T22:09:14.576Z,8.80
2022-09-19T22:11:43.733Z,8.78
2022-09-19T22:14:12.904Z,8.72
2022-09-19T22:16:42.384Z,8.60
2022-09-19T22:19:12.955Z,8.45
2022-09-19T22:21:42.641Z,8.38
2022-09-19T22:24:12.539Z,8.29
2022-09-19T22:26:43.812Z,8.28
2022-09-19T22:29:13.045Z,8.24
2022-09-19T22:31:42.381Z,8.16
2022-09-19T22:34:12.804Z,8.11
2022-09-19T22:36:41.904Z,8.13
2022-09-19T22:39:11.304Z,8.13
2022-09-19T22:41:40.611Z,8.14
2022-09-19T22:44:10.033Z,8.16
2022-09-19T22:46:39.564Z,8.22
2022-09-19T22:49:08.835Z,8.24
2022-09-19T22:51:38.661Z,8.28
2022-09-19T22:54:08.367Z,8.29
2022-09-19T22:56:38.170Z,8.27
2022-09-19T22:59:07.431Z,8.29
2022-09-19T23:01:39.930Z,8.31
2022-09-19T23:04:09.511Z,8.19
2022-09-19T23:06:41.808Z,8.24
2022-09-19T23:09:18.592Z,8.34
2022-09-19T23:11:49.361Z,8.46
2022-09-19T23:14:25.817Z,8.50
2022-09-19T23:16:56.087Z,8.41
2022-09-19T23:19:30.472Z,8.27
2022-09-19T23:22:00.916Z,8.22
2022-09-19T23:24:32.270Z,8.26
2022-09-19T23:27:02.980Z,8.25
2022-09-19T23:29:35.679Z,8.23
2022-09-19T23:32:05.254Z,8.24
2022-09-19T23:34:34.479Z,8.25
2022-09-19T23:37:04.070Z,8.33
2022-09-19T23:39:33.211Z,8.38
2022-09-19T23:42:02.717Z,8.47
2022-09-19T23:44:32.503Z,8.53
2022-09-19T23:47:01.983Z,8.56
2022-09-19T23:49:31.581Z,8.62
2022-09-19T23:52:00.819Z,8.62
2022-09-19T23:54:31.418Z,8.60
2022-09-19T23:57:00.708Z,8.60
2022-09-19T23:59:30.048Z,8.58
